sensor_id;sensor_type;location;lat;lon;timestamp;temperature;humidity
26541;DHT22;14206;50.202;10.948;2023-05-08T00:00:57;12.20;91.10
26541;DHT22;14206;50.202;10.948;2023-05-08T00:03:24;12.30;91.20
26541;DHT22;14206;50.202;10.948;2023-05-08T00:05:52;12.20;91.00
26541;DHT22;14206;50.202;10.948;2023-05-08T00:08:21;12.20;91.10
26541;DHT22;14206;50.202;10.948;2023-05-08T00:10:48;12.20;91.00
26541;DHT22;14206;50.202;10.948;2023-05-08T00:13:15;12.20;91.10
26541;DHT22;14206;50.202;10.948;2023-05-08T00:15:42;12.20;90.90
26541;DHT22;14206;50.202;10.948;2023-05-08T00:18:09;12.20;91.30
26541;DHT22;14206;50.202;10.948;2023-05-08T00:20:36;12.20;91.40
26541;DHT22;14206;50.202;10.948;2023-05-08T00:23:03;12.20;91.40
26541;DHT22;14206;50.202;10.948;2023-05-08T00:25:30;12.20;91.50
26541;DHT22;14206;50.202;10.948;2023-05-08T00:27:58;12.20;91.60
26541;DHT22;14206;50.202;10.948;2023-05-08T00:30:25;12.10;91.50
26541;DHT22;14206;50.202;10.948;2023-05-08T00:32:52;12.10;91.60
26541;DHT22;14206;50.202;10.948;2023-05-08T00:35:19;12.10;91.70
26541;DHT22;14206;50.202;10.948;2023-05-08T00:37:46;12.10;91.60
26541;DHT22;14206;50.202;10.948;2023-05-08T00:40:13;12.00;91.50
26541;DHT22;14206;50.202;10.948;2023-05-08T00:42:41;12.00;91.60
26541;DHT22;14206;50.202;10.948;2023-05-08T00:45:08;12.00;91.70
26541;DHT22;14206;50.202;10.948;2023-05-08T00:47:35;12.00;91.40
26541;DHT22;14206;50.202;10.948;2023-05-08T00:50:02;12.00;91.50
26541;DHT22;14206;50.202;10.948;2023-05-08T00:52:30;12.00;91.50
26541;DHT22;14206;50.202;10.948;2023-05-08T00:55:00;12.00;91.30
26541;DHT22;14206;50.202;10.948;2023-05-08T00:57:30;12.00;91.40
26541;DHT22;14206;50.202;10.948;2023-05-08T00:59:59;12.00;91.30
26541;DHT22;14206;50.202;10.948;2023-05-08T01:02:27;12.00;91.20
26541;DHT22;14206;50.202;10.948;2023-05-08T01:04:56;12.00;91.10
26541;DHT22;14206;50.202;10.948;2023-05-08T01:07:23;12.00;91.10
26541;DHT22;14206;50.202;10.948;2023-05-08T01:09:50;12.00;91.10
26541;DHT22;14206;50.202;10.948;2023-05-08T01:15:10;11.90;91.40
26541;DHT22;14206;50.202;10.948;2023-05-08T01:27:07;11.80;91.40
26541;DHT22;14206;50.202;10.948;2023-05-08T01:32:20;11.70;91.60
26541;DHT22;14206;50.202;10.948;2023-05-08T01:40:21;11.70;91.50
26541;DHT22;14206;50.202;10.948;2023-05-08T01:43:02;11.60;91.70
26541;DHT22;14206;50.202;10.948;2023-05-08T01:45:36;11.60;91.70
26541;DHT22;14206;50.202;10.948;2023-05-08T01:48:06;11.60;91.70
26541;DHT22;14206;50.202;10.948;2023-05-08T01:50:40;11.60;91.50
26541;DHT22;14206;50.202;10.948;2023-05-08T01:53:12;11.60;91.50
26541;DHT22;14206;50.202;10.948;2023-05-08T01:55:42;11.60;91.70
26541;DHT22;14206;50.202;10.948;2023-05-08T01:58:10;11.60;92.00
26541;DHT22;14206;50.202;10.948;2023-05-08T02:00:39;11.60;91.80
26541;DHT22;14206;50.202;10.948;2023-05-08T02:03:11;11.60;91.50
26541;DHT22;14206;50.202;10.948;2023-05-08T02:05:39;11.60;91.60
26541;DHT22;14206;50.202;10.948;2023-05-08T02:08:08;11.60;91.30
26541;DHT22;14206;50.202;10.948;2023-05-08T02:10:37;11.60;91.20
26541;DHT22;14206;50.202;10.948;2023-05-08T02:13:05;11.60;91.40
26541;DHT22;14206;50.202;10.948;2023-05-08T02:15:34;11.60;91.50
26541;DHT22;14206;50.202;10.948;2023-05-08T02:18:04;11.60;91.30
26541;DHT22;14206;50.202;10.948;2023-05-08T02:20:32;11.60;91.10
26541;DHT22;14206;50.202;10.948;2023-05-08T02:22:59;11.60;91.20
26541;DHT22;14206;50.202;10.948;2023-05-08T02:25:28;11.60;91.20
26541;DHT22;14206;50.202;10.948;2023-05-08T02:27:56;11.60;91.20
26541;DHT22;14206;50.202;10.948;2023-05-08T02:30:24;11.60;91.00
26541;DHT22;14206;50.202;10.948;2023-05-08T02:32:53;11.50;90.90
26541;DHT22;14206;50.202;10.948;2023-05-08T02:35:20;11.50;91.00
26541;DHT22;14206;50.202;10.948;2023-05-08T02:37:53;11.50;90.90
26541;DHT22;14206;50.202;10.948;2023-05-08T02:40:23;11.40;91.00
26541;DHT22;14206;50.202;10.948;2023-05-08T02:42:51;11.40;90.80
26541;DHT22;14206;50.202;10.948;2023-05-08T02:45:18;11.40;91.10
26541;DHT22;14206;50.202;10.948;2023-05-08T02:48:01;11.30;91.30
26541;DHT22;14206;50.202;10.948;2023-05-08T02:51:13;11.20;91.30
26541;DHT22;14206;50.202;10.948;2023-05-08T02:53:42;11.20;91.40
26541;DHT22;14206;50.202;10.948;2023-05-08T02:56:20;11.10;91.30
26541;DHT22;14206;50.202;10.948;2023-05-08T02:58:56;11.00;91.80
26541;DHT22;14206;50.202;10.948;2023-05-08T03:01:29;11.00;91.70
26541;DHT22;14206;50.202;10.948;2023-05-08T03:04:03;11.00;91.50
26541;DHT22;14206;50.202;10.948;2023-05-08T03:06:37;10.90;91.50
26541;DHT22;14206;50.202;10.948;2023-05-08T03:09:06;10.90;91.90
26541;DHT22;14206;50.202;10.948;2023-05-08T03:11:39;10.80;91.80
26541;DHT22;14206;50.202;10.948;2023-05-08T03:14:10;10.80;91.80
26541;DHT22;14206;50.202;10.948;2023-05-08T03:16:40;10.80;91.50
26541;DHT22;14206;50.202;10.948;2023-05-08T03:19:23;10.80;91.90
26541;DHT22;14206;50.202;10.948;2023-05-08T03:21:53;10.70;91.90
26541;DHT22;14206;50.202;10.948;2023-05-08T03:24:22;10.70;92.00
26541;DHT22;14206;50.202;10.948;2023-05-08T03:26:50;10.70;92.20
26541;DHT22;14206;50.202;10.948;2023-05-08T03:29:18;10.70;92.30
26541;DHT22;14206;50.202;10.948;2023-05-08T03:31:46;10.60;92.30
26541;DHT22;14206;50.202;10.948;2023-05-08T03:34:14;10.60;92.00
26541;DHT22;14206;50.202;10.948;2023-05-08T03:36:43;10.70;91.80
26541;DHT22;14206;50.202;10.948;2023-05-08T03:39:10;10.70;91.90
26541;DHT22;14206;50.202;10.948;2023-05-08T03:41:38;10.70;91.60
26541;DHT22;14206;50.202;10.948;2023-05-08T03:44:06;10.70;92.00
26541;DHT22;14206;50.202;10.948;2023-05-08T03:46:34;10.70;91.60
26541;DHT22;14206;50.202;10.948;2023-05-08T03:49:03;10.70;91.60
26541;DHT22;14206;50.202;10.948;2023-05-08T03:51:31;10.80;91.20
26541;DHT22;14206;50.202;10.948;2023-05-08T03:53:58;10.80;91.10
26541;DHT22;14206;50.202;10.948;2023-05-08T03:56:26;10.80;91.20
26541;DHT22;14206;50.202;10.948;2023-05-08T03:59:08;10.80;91.20
26541;DHT22;14206;50.202;10.948;2023-05-08T04:02:14;10.80;91.20
26541;DHT22;14206;50.202;10.948;2023-05-08T04:04:46;10.80;90.80
26541;DHT22;14206;50.202;10.948;2023-05-08T04:07:30;10.90;90.80
26541;DHT22;14206;50.202;10.948;2023-05-08T04:10:04;10.90;90.90
26541;DHT22;14206;50.202;10.948;2023-05-08T04:13:04;10.90;90.90
26541;DHT22;14206;50.202;10.948;2023-05-08T04:15:38;11.00;90.50
26541;DHT22;14206;50.202;10.948;2023-05-08T04:18:13;11.00;90.50
26541;DHT22;14206;50.202;10.948;2023-05-08T04:20:41;11.00;90.70
26541;DHT22;14206;50.202;10.948;2023-05-08T04:23:14;11.10;90.30
26541;DHT22;14206;50.202;10.948;2023-05-08T04:25:43;11.10;90.00
26541;DHT22;14206;50.202;10.948;2023-05-08T04:28:11;11.20;89.60
26541;DHT22;14206;50.202;10.948;2023-05-08T04:30:39;11.20;89.20
26541;DHT22;14206;50.202;10.948;2023-05-08T04:33:06;11.20;88.70
26541;DHT22;14206;50.202;10.948;2023-05-08T04:35:34;11.20;88.70
26541;DHT22;14206;50.202;10.948;2023-05-08T04:38:02;11.20;89.10
26541;DHT22;14206;50.202;10.948;2023-05-08T04:40:29;11.30;88.50
26541;DHT22;14206;50.202;10.948;2023-05-08T04:42:56;11.30;88.30
26541;DHT22;14206;50.202;10.948;2023-05-08T04:45:23;11.30;88.30
26541;DHT22;14206;50.202;10.948;2023-05-08T04:47:50;11.40;88.10
26541;DHT22;14206;50.202;10.948;2023-05-08T04:50:17;11.40;87.50
26541;DHT22;14206;50.202;10.948;2023-05-08T04:52:45;11.40;88.10
26541;DHT22;14206;50.202;10.948;2023-05-08T04:55:12;11.40;87.10
26541;DHT22;14206;50.202;10.948;2023-05-08T04:57:39;11.50;87.40
26541;DHT22;14206;50.202;10.948;2023-05-08T05:00:07;11.50;86.80
26541;DHT22;14206;50.202;10.948;2023-05-08T05:02:37;11.60;86.70
26541;DHT22;14206;50.202;10.948;2023-05-08T05:05:05;11.60;87.20
26541;DHT22;14206;50.202;10.948;2023-05-08T05:07:32;11.60;86.80
26541;DHT22;14206;50.202;10.948;2023-05-08T05:09:59;11.60;86.50
26541;DHT22;14206;50.202;10.948;2023-05-08T05:12:27;11.70;86.70
26541;DHT22;14206;50.202;10.948;2023-05-08T05:14:55;11.70;86.30
26541;DHT22;14206;50.202;10.948;2023-05-08T05:17:23;11.80;85.80
26541;DHT22;14206;50.202;10.948;2023-05-08T05:19:50;11.90;85.80
26541;DHT22;14206;50.202;10.948;2023-05-08T05:22:19;12.00;86.00
26541;DHT22;14206;50.202;10.948;2023-05-08T05:24:46;12.00;85.20
26541;DHT22;14206;50.202;10.948;2023-05-08T05:27:12;12.00;85.60
26541;DHT22;14206;50.202;10.948;2023-05-08T05:29:39;12.10;85.30
26541;DHT22;14206;50.202;10.948;2023-05-08T05:32:06;12.10;84.60
26541;DHT22;14206;50.202;10.948;2023-05-08T05:34:35;12.20;84.70
26541;DHT22;14206;50.202;10.948;2023-05-08T05:37:02;12.20;84.20
26541;DHT22;14206;50.202;10.948;2023-05-08T05:39:29;12.30;84.30
26541;DHT22;14206;50.202;10.948;2023-05-08T05:41:56;12.40;83.30
26541;DHT22;14206;50.202;10.948;2023-05-08T05:44:23;12.40;83.70
26541;DHT22;14206;50.202;10.948;2023-05-08T05:46:50;12.50;83.80
26541;DHT22;14206;50.202;10.948;2023-05-08T05:49:17;12.60;82.90
26541;DHT22;14206;50.202;10.948;2023-05-08T05:51:43;12.70;82.00
26541;DHT22;14206;50.202;10.948;2023-05-08T05:54:11;12.70;83.10
26541;DHT22;14206;50.202;10.948;2023-05-08T05:56:37;12.70;82.20
26541;DHT22;14206;50.202;10.948;2023-05-08T05:59:04;12.80;82.00
26541;DHT22;14206;50.202;10.948;2023-05-08T06:01:31;12.90;82.00
26541;DHT22;14206;50.202;10.948;2023-05-08T06:03:58;13.10;82.10
26541;DHT22;14206;50.202;10.948;2023-05-08T06:06:24;13.20;81.80
26541;DHT22;14206;50.202;10.948;2023-05-08T06:08:52;13.30;81.50
26541;DHT22;14206;50.202;10.948;2023-05-08T06:11:21;13.40;80.00
26541;DHT22;14206;50.202;10.948;2023-05-08T06:13:49;13.40;80.80
26541;DHT22;14206;50.202;10.948;2023-05-08T06:16:17;13.50;80.40
26541;DHT22;14206;50.202;10.948;2023-05-08T06:18:46;13.60;79.10
26541;DHT22;14206;50.202;10.948;2023-05-08T06:21:13;13.60;78.90
26541;DHT22;14206;50.202;10.948;2023-05-08T06:23:41;13.60;78.80
26541;DHT22;14206;50.202;10.948;2023-05-08T06:26:08;13.70;79.60
26541;DHT22;14206;50.202;10.948;2023-05-08T06:28:35;13.70;79.00
26541;DHT22;14206;50.202;10.948;2023-05-08T06:31:02;13.90;79.40
26541;DHT22;14206;50.202;10.948;2023-05-08T06:33:29;14.00;78.50
26541;DHT22;14206;50.202;10.948;2023-05-08T06:35:56;14.10;77.80
26541;DHT22;14206;50.202;10.948;2023-05-08T06:38:22;14.20;78.50
26541;DHT22;14206;50.202;10.948;2023-05-08T06:40:49;14.40;77.50
26541;DHT22;14206;50.202;10.948;2023-05-08T06:43:16;14.50;76.40
26541;DHT22;14206;50.202;10.948;2023-05-08T06:45:43;14.50;76.40
26541;DHT22;14206;50.202;10.948;2023-05-08T06:48:11;14.50;76.30
26541;DHT22;14206;50.202;10.948;2023-05-08T06:50:38;14.50;76.20
26541;DHT22;14206;50.202;10.948;2023-05-08T06:53:06;14.60;76.40
26541;DHT22;14206;50.202;10.948;2023-05-08T06:55:33;14.60;75.60
26541;DHT22;14206;50.202;10.948;2023-05-08T06:58:00;14.60;75.70
26541;DHT22;14206;50.202;10.948;2023-05-08T07:00:27;14.70;75.80
26541;DHT22;14206;50.202;10.948;2023-05-08T07:02:54;14.80;75.60
26541;DHT22;14206;50.202;10.948;2023-05-08T07:05:21;14.90;76.30
26541;DHT22;14206;50.202;10.948;2023-05-08T07:07:48;15.10;75.60
26541;DHT22;14206;50.202;10.948;2023-05-08T07:10:15;15.30;74.80
26541;DHT22;14206;50.202;10.948;2023-05-08T07:12:45;15.60;74.30
26541;DHT22;14206;50.202;10.948;2023-05-08T07:15:12;15.80;73.40
26541;DHT22;14206;50.202;10.948;2023-05-08T07:17:51;16.00;72.90
26541;DHT22;14206;50.202;10.948;2023-05-08T07:20:19;16.20;71.50
26541;DHT22;14206;50.202;10.948;2023-05-08T07:22:46;16.40;71.40
26541;DHT22;14206;50.202;10.948;2023-05-08T07:25:13;16.60;71.00
26541;DHT22;14206;50.202;10.948;2023-05-08T07:27:41;17.00;70.30
26541;DHT22;14206;50.202;10.948;2023-05-08T07:30:08;17.40;69.70
26541;DHT22;14206;50.202;10.948;2023-05-08T07:32:35;17.70;69.80
26541;DHT22;14206;50.202;10.948;2023-05-08T07:35:05;17.90;67.70
26541;DHT22;14206;50.202;10.948;2023-05-08T07:37:36;18.20;67.70
26541;DHT22;14206;50.202;10.948;2023-05-08T07:40:04;18.40;66.20
26541;DHT22;14206;50.202;10.948;2023-05-08T07:42:37;18.50;65.80
26541;DHT22;14206;50.202;10.948;2023-05-08T07:45:04;18.70;65.20
26541;DHT22;14206;50.202;10.948;2023-05-08T07:47:31;18.80;64.80
26541;DHT22;14206;50.202;10.948;2023-05-08T07:49:58;18.90;64.70
26541;DHT22;14206;50.202;10.948;2023-05-08T07:52:25;19.20;63.70
26541;DHT22;14206;50.202;10.948;2023-05-08T07:54:52;19.50;63.60
26541;DHT22;14206;50.202;10.948;2023-05-08T07:57:18;19.80;63.70
26541;DHT22;14206;50.202;10.948;2023-05-08T07:59:45;20.10;61.70
26541;DHT22;14206;50.202;10.948;2023-05-08T08:02:12;20.40;62.60
26541;DHT22;14206;50.202;10.948;2023-05-08T08:04:39;20.80;61.70
26541;DHT22;14206;50.202;10.948;2023-05-08T08:07:06;21.10;60.40
26541;DHT22;14206;50.202;10.948;2023-05-08T08:09:33;21.20;59.90
26541;DHT22;14206;50.202;10.948;2023-05-08T08:12:00;21.60;59.10
26541;DHT22;14206;50.202;10.948;2023-05-08T08:14:26;22.10;59.70
26541;DHT22;14206;50.202;10.948;2023-05-08T08:16:54;22.40;58.10
26541;DHT22;14206;50.202;10.948;2023-05-08T08:19:21;22.40;57.60
26541;DHT22;14206;50.202;10.948;2023-05-08T08:21:47;22.50;58.30
26541;DHT22;14206;50.202;10.948;2023-05-08T08:24:14;22.80;57.90
26541;DHT22;14206;50.202;10.948;2023-05-08T08:26:41;22.80;57.10
26541;DHT22;14206;50.202;10.948;2023-05-08T08:29:08;23.00;56.60
26541;DHT22;14206;50.202;10.948;2023-05-08T08:31:34;23.20;55.70
26541;DHT22;14206;50.202;10.948;2023-05-08T08:34:01;23.40;56.20
26541;DHT22;14206;50.202;10.948;2023-05-08T08:36:30;23.70;56.00
26541;DHT22;14206;50.202;10.948;2023-05-08T08:38:58;23.90;54.80
26541;DHT22;14206;50.202;10.948;2023-05-08T08:41:25;23.90;54.30
26541;DHT22;14206;50.202;10.948;2023-05-08T08:43:56;24.00;54.10
26541;DHT22;14206;50.202;10.948;2023-05-08T08:46:24;24.10;54.40
26541;DHT22;14206;50.202;10.948;2023-05-08T08:48:55;24.30;54.70
26541;DHT22;14206;50.202;10.948;2023-05-08T08:51:45;24.60;54.20
26541;DHT22;14206;50.202;10.948;2023-05-08T08:54:20;24.80;52.30
26541;DHT22;14206;50.202;10.948;2023-05-08T08:56:48;25.00;53.00
26541;DHT22;14206;50.202;10.948;2023-05-08T08:59:16;25.40;52.10
26541;DHT22;14206;50.202;10.948;2023-05-08T09:01:46;25.70;51.10
26541;DHT22;14206;50.202;10.948;2023-05-08T09:04:15;25.70;51.20
26541;DHT22;14206;50.202;10.948;2023-05-08T09:06:43;25.80;50.70
26541;DHT22;14206;50.202;10.948;2023-05-08T09:09:12;26.00;52.00
26541;DHT22;14206;50.202;10.948;2023-05-08T09:11:39;26.40;50.60
26541;DHT22;14206;50.202;10.948;2023-05-08T09:14:08;26.60;50.20
26541;DHT22;14206;50.202;10.948;2023-05-08T09:16:35;26.70;51.00
26541;DHT22;14206;50.202;10.948;2023-05-08T09:19:02;26.80;49.80
26541;DHT22;14206;50.202;10.948;2023-05-08T09:21:30;26.70;49.40
26541;DHT22;14206;50.202;10.948;2023-05-08T09:24:02;26.40;50.20
26541;DHT22;14206;50.202;10.948;2023-05-08T09:26:33;26.40;49.10
26541;DHT22;14206;50.202;10.948;2023-05-08T09:31:38;26.70;49.80
26541;DHT22;14206;50.202;10.948;2023-05-08T09:34:11;26.70;49.50
26541;DHT22;14206;50.202;10.948;2023-05-08T09:36:48;26.70;49.80
26541;DHT22;14206;50.202;10.948;2023-05-08T09:39:21;26.80;50.10
26541;DHT22;14206;50.202;10.948;2023-05-08T09:42:03;26.80;49.60
26541;DHT22;14206;50.202;10.948;2023-05-08T09:44:50;26.80;50.20
26541;DHT22;14206;50.202;10.948;2023-05-08T09:47:19;26.90;49.00
26541;DHT22;14206;50.202;10.948;2023-05-08T09:50:07;26.90;49.40
26541;DHT22;14206;50.202;10.948;2023-05-08T09:52:37;27.10;48.80
26541;DHT22;14206;50.202;10.948;2023-05-08T09:55:06;27.30;48.90
26541;DHT22;14206;50.202;10.948;2023-05-08T09:57:39;27.50;51.00
26541;DHT22;14206;50.202;10.948;2023-05-08T10:02:38;27.40;48.90
26541;DHT22;14206;50.202;10.948;2023-05-08T10:05:29;27.30;49.10
26541;DHT22;14206;50.202;10.948;2023-05-08T10:08:44;27.40;48.20
26541;DHT22;14206;50.202;10.948;2023-05-08T10:10:45;27.40;48.50
26541;DHT22;14206;50.202;10.948;2023-05-08T10:13:13;27.40;48.10
26541;DHT22;14206;50.202;10.948;2023-05-08T10:15:43;27.20;49.00
26541;DHT22;14206;50.202;10.948;2023-05-08T10:18:11;27.40;50.50
26541;DHT22;14206;50.202;10.948;2023-05-08T10:20:41;27.80;49.10
26541;DHT22;14206;50.202;10.948;2023-05-08T10:23:13;27.80;48.90
26541;DHT22;14206;50.202;10.948;2023-05-08T10:25:45;28.10;49.60
26541;DHT22;14206;50.202;10.948;2023-05-08T10:28:17;28.20;48.50
26541;DHT22;14206;50.202;10.948;2023-05-08T10:30:49;28.50;48.80
26541;DHT22;14206;50.202;10.948;2023-05-08T10:33:20;28.50;48.00
26541;DHT22;14206;50.202;10.948;2023-05-08T10:35:47;28.50;47.40
26541;DHT22;14206;50.202;10.948;2023-05-08T10:38:15;28.50;47.70
26541;DHT22;14206;50.202;10.948;2023-05-08T10:40:42;28.40;47.40
26541;DHT22;14206;50.202;10.948;2023-05-08T10:43:10;28.50;47.70
26541;DHT22;14206;50.202;10.948;2023-05-08T10:45:38;28.60;48.00
26541;DHT22;14206;50.202;10.948;2023-05-08T10:48:28;28.70;47.20
26541;DHT22;14206;50.202;10.948;2023-05-08T10:51:26;28.70;46.50
26541;DHT22;14206;50.202;10.948;2023-05-08T10:54:05;28.50;47.00
26541;DHT22;14206;50.202;10.948;2023-05-08T10:56:37;28.20;47.40
26541;DHT22;14206;50.202;10.948;2023-05-08T10:59:05;28.10;47.50
26541;DHT22;14206;50.202;10.948;2023-05-08T11:01:32;28.10;48.20
26541;DHT22;14206;50.202;10.948;2023-05-08T11:03:58;28.00;48.10
26541;DHT22;14206;50.202;10.948;2023-05-08T11:06:42;28.00;50.10
26541;DHT22;14206;50.202;10.948;2023-05-08T11:09:20;28.00;47.80
26541;DHT22;14206;50.202;10.948;2023-05-08T11:12:22;27.80;47.60
26541;DHT22;14206;50.202;10.948;2023-05-08T11:15:06;27.50;49.50
26541;DHT22;14206;50.202;10.948;2023-05-08T11:17:33;27.30;50.00
26541;DHT22;14206;50.202;10.948;2023-05-08T11:20:02;27.00;49.90
26541;DHT22;14206;50.202;10.948;2023-05-08T11:22:31;26.80;50.10
26541;DHT22;14206;50.202;10.948;2023-05-08T11:25:03;26.70;52.10
26541;DHT22;14206;50.202;10.948;2023-05-08T11:38:23;25.60;53.00
26541;DHT22;14206;50.202;10.948;2023-05-08T11:40:57;25.30;53.10
26541;DHT22;14206;50.202;10.948;2023-05-08T11:45:59;24.90;55.20
26541;DHT22;14206;50.202;10.948;2023-05-08T11:48:26;24.60;54.90
26541;DHT22;14206;50.202;10.948;2023-05-08T11:50:53;24.50;55.40
26541;DHT22;14206;50.202;10.948;2023-05-08T11:53:21;24.50;55.10
26541;DHT22;14206;50.202;10.948;2023-05-08T11:55:48;24.60;55.30
26541;DHT22;14206;50.202;10.948;2023-05-08T11:58:15;24.70;55.30
26541;DHT22;14206;50.202;10.948;2023-05-08T12:00:43;24.70;56.00
26541;DHT22;14206;50.202;10.948;2023-05-08T12:03:16;24.90;54.50
26541;DHT22;14206;50.202;10.948;2023-05-08T12:05:44;25.00;55.00
26541;DHT22;14206;50.202;10.948;2023-05-08T12:08:12;25.10;54.30
26541;DHT22;14206;50.202;10.948;2023-05-08T12:15:45;25.70;53.80
26541;DHT22;14206;50.202;10.948;2023-05-08T12:18:12;25.80;54.00
26541;DHT22;14206;50.202;10.948;2023-05-08T12:20:40;25.90;53.70
26541;DHT22;14206;50.202;10.948;2023-05-08T12:23:08;26.00;53.40
26541;DHT22;14206;50.202;10.948;2023-05-08T12:25:37;25.90;53.50
26541;DHT22;14206;50.202;10.948;2023-05-08T12:28:08;25.90;54.90
26541;DHT22;14206;50.202;10.948;2023-05-08T12:30:36;25.80;53.60
26541;DHT22;14206;50.202;10.948;2023-05-08T12:33:03;25.70;52.90
26541;DHT22;14206;50.202;10.948;2023-05-08T12:35:31;25.60;53.10
26541;DHT22;14206;50.202;10.948;2023-05-08T12:38:02;25.60;52.60
26541;DHT22;14206;50.202;10.948;2023-05-08T12:40:31;25.60;52.80
26541;DHT22;14206;50.202;10.948;2023-05-08T12:43:02;25.60;52.70
26541;DHT22;14206;50.202;10.948;2023-05-08T12:45:32;25.50;53.30
26541;DHT22;14206;50.202;10.948;2023-05-08T12:48:00;25.20;54.10
26541;DHT22;14206;50.202;10.948;2023-05-08T12:50:27;24.80;54.40
26541;DHT22;14206;50.202;10.948;2023-05-08T12:53:07;24.40;53.70
26541;DHT22;14206;50.202;10.948;2023-05-08T12:55:37;24.00;54.60
26541;DHT22;14206;50.202;10.948;2023-05-08T12:58:05;23.70;56.00
26541;DHT22;14206;50.202;10.948;2023-05-08T13:03:06;23.40;56.40
26541;DHT22;14206;50.202;10.948;2023-05-08T13:05:34;23.50;56.80
26541;DHT22;14206;50.202;10.948;2023-05-08T13:08:06;23.90;57.10
26541;DHT22;14206;50.202;10.948;2023-05-08T13:10:53;24.20;56.60
26541;DHT22;14206;50.202;10.948;2023-05-08T13:13:25;24.20;55.20
26541;DHT22;14206;50.202;10.948;2023-05-08T13:15:54;24.10;56.20
26541;DHT22;14206;50.202;10.948;2023-05-08T13:18:24;24.10;55.50
26541;DHT22;14206;50.202;10.948;2023-05-08T13:20:52;23.90;55.70
26541;DHT22;14206;50.202;10.948;2023-05-08T13:23:19;23.70;55.50
26541;DHT22;14206;50.202;10.948;2023-05-08T13:25:46;23.70;54.80
26541;DHT22;14206;50.202;10.948;2023-05-08T13:28:13;23.60;54.50
26541;DHT22;14206;50.202;10.948;2023-05-08T13:30:40;23.40;54.80
26541;DHT22;14206;50.202;10.948;2023-05-08T13:33:07;23.20;55.70
26541;DHT22;14206;50.202;10.948;2023-05-08T13:35:35;22.90;55.60
26541;DHT22;14206;50.202;10.948;2023-05-08T13:38:02;22.70;55.70
26541;DHT22;14206;50.202;10.948;2023-05-08T13:40:29;22.50;56.50
26541;DHT22;14206;50.202;10.948;2023-05-08T13:42:57;22.40;57.80
26541;DHT22;14206;50.202;10.948;2023-05-08T13:45:24;22.40;56.70
26541;DHT22;14206;50.202;10.948;2023-05-08T13:47:51;22.30;56.90
26541;DHT22;14206;50.202;10.948;2023-05-08T13:50:18;22.10;56.70
26541;DHT22;14206;50.202;10.948;2023-05-08T13:52:47;22.10;56.70
26541;DHT22;14206;50.202;10.948;2023-05-08T13:55:14;22.10;57.10
26541;DHT22;14206;50.202;10.948;2023-05-08T13:57:42;22.00;56.20
26541;DHT22;14206;50.202;10.948;2023-05-08T14:00:09;22.00;56.10
26541;DHT22;14206;50.202;10.948;2023-05-08T14:02:36;21.90;55.80
26541;DHT22;14206;50.202;10.948;2023-05-08T14:05:04;22.00;55.80
26541;DHT22;14206;50.202;10.948;2023-05-08T14:07:34;22.00;55.80
26541;DHT22;14206;50.202;10.948;2023-05-08T14:10:01;22.00;56.20
26541;DHT22;14206;50.202;10.948;2023-05-08T14:12:28;21.90;56.70
26541;DHT22;14206;50.202;10.948;2023-05-08T14:14:55;21.90;57.40
26541;DHT22;14206;50.202;10.948;2023-05-08T14:17:22;21.90;58.10
26541;DHT22;14206;50.202;10.948;2023-05-08T14:19:48;21.90;59.10
26541;DHT22;14206;50.202;10.948;2023-05-08T14:22:15;21.80;59.50
26541;DHT22;14206;50.202;10.948;2023-05-08T14:24:42;21.60;59.10
26541;DHT22;14206;50.202;10.948;2023-05-08T14:27:10;21.50;58.80
26541;DHT22;14206;50.202;10.948;2023-05-08T14:29:37;21.40;59.20
26541;DHT22;14206;50.202;10.948;2023-05-08T14:32:04;21.30;60.00
26541;DHT22;14206;50.202;10.948;2023-05-08T14:34:31;21.30;59.50
26541;DHT22;14206;50.202;10.948;2023-05-08T14:36:58;21.30;59.30
26541;DHT22;14206;50.202;10.948;2023-05-08T14:39:25;21.30;59.20
26541;DHT22;14206;50.202;10.948;2023-05-08T14:41:52;21.30;60.40
26541;DHT22;14206;50.202;10.948;2023-05-08T14:44:21;21.30;59.90
26541;DHT22;14206;50.202;10.948;2023-05-08T14:46:48;21.40;59.50
26541;DHT22;14206;50.202;10.948;2023-05-08T14:49:15;21.50;59.00
26541;DHT22;14206;50.202;10.948;2023-05-08T14:52:02;21.60;59.10
26541;DHT22;14206;50.202;10.948;2023-05-08T14:54:29;21.70;57.80
26541;DHT22;14206;50.202;10.948;2023-05-08T14:56:56;21.80;57.00
26541;DHT22;14206;50.202;10.948;2023-05-08T14:59:23;21.80;56.80
26541;DHT22;14206;50.202;10.948;2023-05-08T15:01:50;21.80;57.30
26541;DHT22;14206;50.202;10.948;2023-05-08T15:04:17;21.90;56.10
26541;DHT22;14206;50.202;10.948;2023-05-08T15:06:44;21.90;57.40
26541;DHT22;14206;50.202;10.948;2023-05-08T15:09:11;21.90;56.80
26541;DHT22;14206;50.202;10.948;2023-05-08T15:11:38;21.90;56.30
26541;DHT22;14206;50.202;10.948;2023-05-08T15:14:05;22.00;55.90
26541;DHT22;14206;50.202;10.948;2023-05-08T15:16:32;21.90;55.60
26541;DHT22;14206;50.202;10.948;2023-05-08T15:18:59;21.90;56.00
26541;DHT22;14206;50.202;10.948;2023-05-08T15:21:26;21.80;56.20
26541;DHT22;14206;50.202;10.948;2023-05-08T15:23:54;21.70;57.40
26541;DHT22;14206;50.202;10.948;2023-05-08T15:26:21;21.60;57.60
26541;DHT22;14206;50.202;10.948;2023-05-08T15:28:48;21.50;58.40
26541;DHT22;14206;50.202;10.948;2023-05-08T15:31:16;21.50;58.20
26541;DHT22;14206;50.202;10.948;2023-05-08T15:33:43;21.50;58.30
26541;DHT22;14206;50.202;10.948;2023-05-08T15:36:12;21.50;57.90
26541;DHT22;14206;50.202;10.948;2023-05-08T15:38:40;21.50;57.50
26541;DHT22;14206;50.202;10.948;2023-05-08T15:41:07;21.40;57.70
26541;DHT22;14206;50.202;10.948;2023-05-08T15:43:39;21.40;58.00
26541;DHT22;14206;50.202;10.948;2023-05-08T15:46:06;21.40;58.50
26541;DHT22;14206;50.202;10.948;2023-05-08T15:48:33;21.40;58.10
26541;DHT22;14206;50.202;10.948;2023-05-08T15:51:00;21.40;58.30
26541;DHT22;14206;50.202;10.948;2023-05-08T15:53:27;21.40;58.80
26541;DHT22;14206;50.202;10.948;2023-05-08T15:55:53;21.50;57.50
26541;DHT22;14206;50.202;10.948;2023-05-08T15:58:21;21.50;57.50
26541;DHT22;14206;50.202;10.948;2023-05-08T16:00:48;21.40;58.20
26541;DHT22;14206;50.202;10.948;2023-05-08T16:03:15;21.40;58.70
26541;DHT22;14206;50.202;10.948;2023-05-08T16:05:42;21.50;58.30
26541;DHT22;14206;50.202;10.948;2023-05-08T16:08:09;21.50;59.30
26541;DHT22;14206;50.202;10.948;2023-05-08T16:10:39;21.50;59.20
26541;DHT22;14206;50.202;10.948;2023-05-08T16:13:07;21.50;59.00
26541;DHT22;14206;50.202;10.948;2023-05-08T16:15:34;21.40;59.00